Terminal Aerodrome Forecast
Issued by NWS

Home | Current Version | Previous Version | Text Only | Print | Product List | Glossary On
Versions: 1 2 3 4 5 6 7 8 9 10 11 12 13 14
221
FTAK31 PAJN 242334
TAFAKT
TAF
PAKT 242334Z 2500/2524 13010KT P6SM VCSH SCT020 BKN035 BKN060
     FM250900 14003KT P6SM FEW005 BKN035
      TEMPO 2509/2513 00000KT 3SM BR BKN005
      AMD LTD TO CLD VIS AND WIND 2506/2515=

USA.gov is the U.S. government's official web portal to all federal, state and local government web resources and services.